Time;durP1;ratioP1;P1;durP2;ratioP2;P2;SDS_P1;SDS_P2;PMS_P1;PMS_P2;Temp;Humidity;BMP_temperature;BMP_pressure;BME280_temperature;BME280_humidity;BME280_pressure;Samples;Min_cycle;Max_cycle;Signal;HPM_P1;HPM_P2
2023/04/07 00:01:41;;;;;;;11.13;8.65;;;;;;;;;;5054168;28;20307;-62
2023/04/07 00:04:08;;;;;;;18.08;9.85;;;;;;;;;;5054100;28;20202;-60
2023/04/07 00:06:35;;;;;;;9.90;8.90;;;;;;;;;;5053984;28;20194;-60
2023/04/07 00:09:02;;;;;;;11.75;10.07;;;;;;;;;;5054441;28;20186;-60
2023/04/07 00:11:29;;;;;;;11.68;9.73;;;;;;;;;;5054141;28;20223;-60
2023/04/07 00:13:56;;;;;;;12.15;9.98;;;;;;;;;;5054034;28;20320;-60
2023/04/07 00:16:23;;;;;;;10.65;9.30;;;;;;;;;;5052954;28;20280;-60
2023/04/07 00:18:51;;;;;;;11.90;9.65;;;;;;;;;;5053975;28;20189;-60
2023/04/07 00:21:18;;;;;;;10.02;8.95;;;;;;;;;;5053644;28;20300;-60
2023/04/07 00:23:45;;;;;;;10.13;8.20;;;;;;;;;;5053952;28;20281;-60
2023/04/07 00:26:12;;;;;;;13.65;9.30;;;;;;;;;;5053820;28;20616;-60
2023/04/07 00:28:39;;;;;;;9.52;8.10;;;;;;;;;;5053671;28;20284;-60
2023/04/07 00:31:06;;;;;;;10.38;9.35;;;;;;;;;;5053687;28;20280;-60
2023/04/07 00:33:33;;;;;;;12.50;9.18;;;;;;;;;;5053559;28;20190;-60
2023/04/07 00:36:02;;;;;;;10.63;8.65;;;;;;;;;;5053485;28;20218;-60
2023/04/07 00:38:28;;;;;;;10.30;9.07;;;;;;;;;;5053609;28;20281;-59
2023/04/07 00:40:59;;;;;;;13.57;11.55;;;;;;;;;;5053551;28;20284;-60
2023/04/07 00:43:26;;;;;;;14.30;10.13;;;;;;;;;;5053281;28;20222;-60
2023/04/07 00:45:53;;;;;;;12.98;9.88;;;;;;;;;;5053299;28;20190;-60
2023/04/07 00:48:20;;;;;;;11.77;9.75;;;;;;;;;;5053181;28;20196;-60
2023/04/07 00:50:47;;;;;;;12.23;10.10;;;;;;;;;;5053070;28;20290;-60
2023/04/07 00:53:15;;;;;;;11.40;9.98;;;;;;;;;;5053132;28;20621;-60
2023/04/07 00:55:42;;;;;;;13.05;11.35;;;;;;;;;;5053134;28;20284;-60
2023/04/07 00:58:09;;;;;;;12.45;10.90;;;;;;;;;;5053193;28;20288;-60
2023/04/07 01:00:42;;;;;;;14.02;10.98;;;;;;;;;;5053060;28;20201;-60
2023/04/07 01:03:10;;;;;;;10.60;9.63;;;;;;;;;;5052802;28;20583;-60
2023/04/07 01:05:40;;;;;;;10.95;9.88;;;;;;;;;;5053001;28;20694;-62
2023/04/07 01:08:09;;;;;;;12.32;10.45;;;;;;;;;;5053047;28;20189;-60
2023/04/07 01:10:42;;;;;;;10.68;9.55;;;;;;;;;;5052982;28;20194;-62
2023/04/07 01:13:12;;;;;;;13.20;10.52;;;;;;;;;;5052805;28;20587;-61
2023/04/07 01:15:40;;;;;;;11.05;9.07;;;;;;;;;;5052790;28;20190;-61
2023/04/07 01:18:09;;;;;;;12.40;9.80;;;;;;;;;;5052971;28;20205;-61
2023/04/07 01:20:36;;;;;;;12.18;9.73;;;;;;;;;;5052727;28;20658;-62
2023/04/07 01:23:05;;;;;;;16.73;10.65;;;;;;;;;;5052552;28;20217;-62
2023/04/07 01:25:39;;;;;;;10.75;9.38;;;;;;;;;;5052453;28;20599;-59
2023/04/07 01:28:26;;;;;;;14.07;10.07;;;;;;;;;;5052407;28;20195;-59
2023/04/07 01:30:57;;;;;;;11.35;9.55;;;;;;;;;;5052654;28;20200;-60
2023/04/07 01:33:25;;;;;;;11.35;10.07;;;;;;;;;;5052580;28;20197;-60
2023/04/07 01:35:52;;;;;;;12.13;10.00;;;;;;;;;;5052644;28;20717;-60
2023/04/07 01:38:19;;;;;;;12.52;8.57;;;;;;;;;;5052449;28;20190;-59
2023/04/07 01:40:47;;;;;;;9.77;8.73;;;;;;;;;;5052271;28;20190;-62
2023/04/07 01:43:15;;;;;;;11.00;9.15;;;;;;;;;;5052195;28;20222;-60
2023/04/07 01:45:42;;;;;;;15.30;10.68;;;;;;;;;;5052654;28;20196;-61
2023/04/07 01:48:11;;;;;;;12.45;9.95;;;;;;;;;;5052560;28;20289;-62
2023/04/07 01:50:38;;;;;;;14.50;9.80;;;;;;;;;;5052485;28;20288;-62
2023/04/07 01:53:05;;;;;;;10.90;9.77;;;;;;;;;;5052190;28;20198;-61
2023/04/07 01:55:33;;;;;;;11.68;9.50;;;;;;;;;;5052462;28;20193;-61
2023/04/07 01:58:04;;;;;;;10.15;9.18;;;;;;;;;;5052470;28;20283;-61
2023/04/07 02:00:31;;;;;;;11.07;9.93;;;;;;;;;;5052399;28;20197;-62
2023/04/07 02:02:59;;;;;;;18.27;11.75;;;;;;;;;;5052247;28;20216;-61
2023/04/07 02:05:29;;;;;;;11.60;9.93;;;;;;;;;;5052176;28;20220;-62
2023/04/07 02:08:00;;;;;;;10.82;8.88;;;;;;;;;;5052335;28;20211;-61
2023/04/07 02:10:28;;;;;;;14.13;10.13;;;;;;;;;;5052294;28;20221;-61
2023/04/07 02:12:56;;;;;;;14.20;10.52;;;;;;;;;;5052261;28;20194;-61
2023/04/07 02:15:24;;;;;;;13.10;10.85;;;;;;;;;;5052201;28;20245;-61
2023/04/07 02:17:54;;;;;;;16.15;10.38;;;;;;;;;;5052032;28;20208;-61
2023/04/07 02:20:21;;;;;;;13.07;9.75;;;;;;;;;;5051976;28;20728;-61
2023/04/07 02:22:49;;;;;;;17.60;11.43;;;;;;;;;;5052066;28;20316;-61
2023/04/07 02:25:23;;;;;;;15.10;10.40;;;;;;;;;;5052220;28;20652;-61
2023/04/07 02:27:50;;;;;;;18.33;11.75;;;;;;;;;;5052144;28;20631;-61
2023/04/07 02:30:17;;;;;;;10.95;9.85;;;;;;;;;;5052008;28;20208;-61
2023/04/07 02:32:44;;;;;;;12.43;10.10;;;;;;;;;;5051783;28;20338;-61
2023/04/07 02:35:11;;;;;;;11.88;9.98;;;;;;;;;;5052079;28;20192;-61
2023/04/07 02:37:39;;;;;;;11.18;9.27;;;;;;;;;;5051938;28;20656;-61
2023/04/07 02:40:08;;;;;;;12.23;9.88;;;;;;;;;;5055710;28;20537;-61
2023/04/07 02:42:35;;;;;;;11.63;10.40;;;;;;;;;;5055698;28;20381;-61
2023/04/07 02:45:02;;;;;;;20.48;10.30;;;;;;;;;;5055520;28;20228;-61
2023/04/07 02:47:29;;;;;;;13.45;10.55;;;;;;;;;;5055786;28;20286;-61
2023/04/07 02:49:56;;;;;;;15.13;11.73;;;;;;;;;;5055357;28;20200;-61
2023/04/07 02:52:23;;;;;;;13.15;11.50;;;;;;;;;;5055575;28;20279;-61
2023/04/07 02:54:50;;;;;;;25.17;10.93;;;;;;;;;;5055446;28;20197;-61
2023/04/07 02:57:18;;;;;;;11.43;9.98;;;;;;;;;;5055373;28;20219;-61
2023/04/07 02:59:45;;;;;;;11.73;10.40;;;;;;;;;;5055226;28;20188;-61
2023/04/07 03:02:12;;;;;;;12.00;10.40;;;;;;;;;;5055341;28;20234;-59
2023/04/07 03:04:39;;;;;;;10.80;9.15;;;;;;;;;;5055377;28;20201;-61
2023/04/07 03:07:06;;;;;;;10.25;9.15;;;;;;;;;;5055294;28;20285;-61
2023/04/07 03:09:34;;;;;;;10.75;9.73;;;;;;;;;;5055153;28;20556;-61
2023/04/07 03:12:02;;;;;;;12.65;9.70;;;;;;;;;;5055208;28;20672;-61
2023/04/07 03:14:30;;;;;;;14.40;10.55;;;;;;;;;;5055111;28;20193;-61
2023/04/07 03:16:57;;;;;;;10.95;9.15;;;;;;;;;;5055112;28;20279;-61
2023/04/07 03:19:24;;;;;;;12.65;9.35;;;;;;;;;;5054842;28;20687;-61
2023/04/07 03:21:51;;;;;;;12.02;9.70;;;;;;;;;;5054876;28;20294;-61
2023/04/07 03:24:18;;;;;;;11.98;9.60;;;;;;;;;;5054909;28;20228;-61
2023/04/07 03:26:45;;;;;;;11.43;8.98;;;;;;;;;;5054710;28;20278;-61
2023/04/07 03:29:12;;;;;;;16.35;9.10;;;;;;;;;;5054703;28;20193;-61
2023/04/07 03:31:40;;;;;;;13.30;8.35;;;;;;;;;;5054725;28;20256;-61
2023/04/07 03:34:07;;;;;;;12.90;8.45;;;;;;;;;;5054765;28;20225;-61
2023/04/07 03:36:34;;;;;;;11.52;9.10;;;;;;;;;;5054686;28;20532;-61
2023/04/07 03:39:01;;;;;;;10.23;8.38;;;;;;;;;;5054582;28;20284;-61
2023/04/07 03:41:28;;;;;;;10.27;9.05;;;;;;;;;;5054426;28;20292;-61
2023/04/07 03:43:55;;;;;;;12.07;9.05;;;;;;;;;;5054394;28;20329;-61
2023/04/07 03:46:22;;;;;;;9.60;8.70;;;;;;;;;;5054575;28;20200;-61
2023/04/07 03:48:51;;;;;;;10.95;9.10;;;;;;;;;;5054174;28;20284;-61
2023/04/07 03:51:18;;;;;;;14.95;8.88;;;;;;;;;;5054354;28;20191;-61
2023/04/07 03:53:45;;;;;;;12.98;9.10;;;;;;;;;;5054207;28;20205;-60
2023/04/07 03:56:12;;;;;;;9.48;8.43;;;;;;;;;;5054119;28;20254;-61
2023/04/07 03:58:41;;;;;;;9.38;8.38;;;;;;;;;;5054318;28;20218;-61
2023/04/07 04:01:08;;;;;;;10.50;8.80;;;;;;;;;;5054332;28;20192;-61
2023/04/07 04:03:35;;;;;;;12.07;8.98;;;;;;;;;;5054036;28;20227;-61
2023/04/07 04:06:04;;;;;;;10.07;8.90;;;;;;;;;;5054058;28;20281;-61
2023/04/07 04:08:31;;;;;;;13.73;9.80;;;;;;;;;;5053993;28;20202;-61
2023/04/07 04:10:58;;;;;;;10.07;9.05;;;;;;;;;;5054190;28;20199;-61
2023/04/07 04:13:25;;;;;;;10.95;9.05;;;;;;;;;;5053980;28;20324;-61
2023/04/07 04:15:52;;;;;;;10.93;8.80;;;;;;;;;;5053974;28;20203;-61
2023/04/07 04:18:19;;;;;;;13.95;8.52;;;;;;;;;;5053751;28;20224;-61
2023/04/07 04:20:47;;;;;;;9.70;8.13;;;;;;;;;;5054442;28;20540;-61
2023/04/07 04:23:15;;;;;;;9.93;8.77;;;;;;;;;;5053693;28;20303;-61
2023/04/07 04:25:42;;;;;;;11.25;8.43;;;;;;;;;;5053795;28;20288;-61
2023/04/07 04:28:09;;;;;;;10.57;8.35;;;;;;;;;;5053674;28;20385;-61
2023/04/07 04:30:36;;;;;;;10.32;8.02;;;;;;;;;;5053539;28;20194;-61
2023/04/07 04:33:03;;;;;;;9.50;8.60;;;;;;;;;;5053542;28;20190;-61
2023/04/07 04:35:30;;;;;;;11.52;7.78;;;;;;;;;;5053560;28;20284;-61
2023/04/07 04:37:57;;;;;;;12.80;9.32;;;;;;;;;;5053929;28;20228;-61
2023/04/07 04:40:25;;;;;;;10.13;8.20;;;;;;;;;;5053763;28;20288;-61
2023/04/07 04:42:52;;;;;;;9.50;8.50;;;;;;;;;;5053394;28;20214;-61
2023/04/07 04:45:19;;;;;;;9.85;8.52;;;;;;;;;;5053116;28;20305;-61
2023/04/07 04:47:46;;;;;;;14.80;8.60;;;;;;;;;;5053262;28;20194;-61
2023/04/07 04:50:13;;;;;;;13.80;8.63;;;;;;;;;;5053124;28;20200;-61
2023/04/07 04:52:40;;;;;;;10.27;8.30;;;;;;;;;;5053160;28;20280;-61
2023/04/07 04:55:08;;;;;;;8.60;7.32;;;;;;;;;;5053212;28;20588;-61
2023/04/07 04:57:37;;;;;;;9.90;7.85;;;;;;;;;;5053181;28;20277;-61
2023/04/07 05:00:04;;;;;;;12.32;8.82;;;;;;;;;;5053062;28;20562;-61
2023/04/07 05:02:31;;;;;;;9.85;8.85;;;;;;;;;;5052236;28;20194;-61
2023/04/07 05:04:58;;;;;;;9.23;8.32;;;;;;;;;;5052870;28;20284;-61
2023/04/07 05:07:25;;;;;;;10.13;8.60;;;;;;;;;;5052983;28;20284;-61
2023/04/07 05:09:52;;;;;;;13.55;9.23;;;;;;;;;;5052792;28;20770;-61
2023/04/07 05:12:19;;;;;;;16.77;9.00;;;;;;;;;;5052896;28;20250;-61
2023/04/07 05:14:47;;;;;;;10.27;8.43;;;;;;;;;;5052912;28;20648;-61
2023/04/07 05:17:14;;;;;;;11.55;8.80;;;;;;;;;;5052811;28;20197;-61
2023/04/07 05:19:41;;;;;;;10.57;9.13;;;;;;;;;;5052931;28;20200;-61
2023/04/07 05:22:08;;;;;;;12.48;8.65;;;;;;;;;;5052827;28;20285;-61
2023/04/07 05:24:35;;;;;;;11.45;7.55;;;;;;;;;;5052564;28;20221;-61
2023/04/07 05:27:02;;;;;;;9.65;8.27;;;;;;;;;;5052508;28;20190;-61
2023/04/07 05:29:29;;;;;;;9.30;8.32;;;;;;;;;;5052548;28;20204;-62
2023/04/07 05:31:57;;;;;;;10.25;8.70;;;;;;;;;;5052411;28;20189;-61
2023/04/07 05:34:25;;;;;;;9.85;8.85;;;;;;;;;;5052595;28;20193;-62
2023/04/07 05:36:51;;;;;;;12.02;8.77;;;;;;;;;;5052573;28;20195;-61
2023/04/07 05:39:18;;;;;;;14.82;9.40;;;;;;;;;;5052587;28;20281;-61
2023/04/07 05:41:45;;;;;;;10.43;7.93;;;;;;;;;;5052383;28;20201;-62
2023/04/07 05:44:12;;;;;;;13.35;9.60;;;;;;;;;;5052061;28;20230;-61
2023/04/07 05:46:39;;;;;;;9.75;7.72;;;;;;;;;;5052449;28;20285;-61
2023/04/07 05:49:08;;;;;;;11.25;8.55;;;;;;;;;;5052465;28;20193;-62
2023/04/07 05:51:35;;;;;;;9.07;8.18;;;;;;;;;;5052131;28;20701;-61
2023/04/07 05:54:03;;;;;;;25.25;9.52;;;;;;;;;;5052359;28;20202;-61
2023/04/07 05:56:30;;;;;;;10.00;9.00;;;;;;;;;;5052241;28;20653;-61
2023/04/07 05:58:57;;;;;;;9.00;8.10;;;;;;;;;;5052049;28;20193;-61
2023/04/07 06:01:24;;;;;;;10.55;9.45;;;;;;;;;;5052337;28;20189;-61
2023/04/07 06:03:51;;;;;;;12.32;9.27;;;;;;;;;;5052307;28;20646;-61
2023/04/07 06:06:20;;;;;;;10.32;9.30;;;;;;;;;;5052083;28;20196;-61
2023/04/07 06:08:47;;;;;;;11.30;8.50;;;;;;;;;;5052085;28;20190;-61
2023/04/07 06:11:14;;;;;;;9.88;8.88;;;;;;;;;;5052076;28;20190;-62
2023/04/07 06:13:41;;;;;;;20.65;10.15;;;;;;;;;;5055205;28;20723;-61
2023/04/07 06:16:08;;;;;;;10.98;8.77;;;;;;;;;;5056300;28;20281;-61
2023/04/07 06:18:35;;;;;;;11.25;8.60;;;;;;;;;;5056140;28;20285;-61
2023/04/07 06:21:02;;;;;;;7.78;7.07;;;;;;;;;;5056230;28;20247;-61
2023/04/07 06:23:30;;;;;;;10.13;7.65;;;;;;;;;;5055950;28;20312;-61
2023/04/07 06:25:57;;;;;;;9.50;7.95;;;;;;;;;;5055847;28;20222;-61
2023/04/07 06:28:24;;;;;;;8.13;7.20;;;;;;;;;;5056083;28;20347;-61
2023/04/07 06:30:51;;;;;;;11.80;7.63;;;;;;;;;;5055890;28;20256;-61
2023/04/07 06:33:20;;;;;;;10.52;7.40;;;;;;;;;;5055862;28;20281;-61
2023/04/07 06:35:47;;;;;;;12.43;7.97;;;;;;;;;;5055812;28;20337;-62
2023/04/07 06:38:14;;;;;;;10.73;7.68;;;;;;;;;;5055846;28;20279;-61
2023/04/07 06:40:43;;;;;;;9.25;7.78;;;;;;;;;;5055735;28;20289;-61
2023/04/07 06:43:10;;;;;;;9.35;6.82;;;;;;;;;;5055400;28;20201;-61
2023/04/07 06:45:37;;;;;;;8.38;7.03;;;;;;;;;;5055727;28;20198;-61
2023/04/07 06:48:04;;;;;;;7.88;7.18;;;;;;;;;;5055670;28;20237;-61
2023/04/07 06:50:31;;;;;;;9.75;7.05;;;;;;;;;;5055647;28;20195;-61
2023/04/07 06:52:58;;;;;;;8.27;7.18;;;;;;;;;;5055440;28;20216;-61
2023/04/07 06:55:26;;;;;;;7.65;6.95;;;;;;;;;;5055627;28;20187;-62
2023/04/07 06:57:54;;;;;;;9.30;7.25;;;;;;;;;;5055533;28;20216;-61
2023/04/07 07:00:22;;;;;;;11.23;7.05;;;;;;;;;;5055429;28;20194;-62
2023/04/07 07:02:49;;;;;;;9.00;7.20;;;;;;;;;;5055364;28;20206;-61
2023/04/07 07:05:16;;;;;;;10.27;6.90;;;;;;;;;;5055224;28;20782;-61
2023/04/07 07:07:43;;;;;;;6.93;6.22;;;;;;;;;;5055248;28;20191;-61
2023/04/07 07:10:10;;;;;;;7.95;7.07;;;;;;;;;;5055291;28;20523;-62
2023/04/07 07:12:37;;;;;;;10.38;7.22;;;;;;;;;;5055228;28;20190;-61
2023/04/07 07:15:06;;;;;;;9.55;8.00;;;;;;;;;;5055210;28;20194;-61
2023/04/07 07:17:33;;;;;;;10.23;8.18;;;;;;;;;;5054955;28;20277;-61
2023/04/07 07:20:00;;;;;;;9.25;7.00;;;;;;;;;;5055036;28;20281;-61
2023/04/07 07:22:27;;;;;;;7.57;6.78;;;;;;;;;;5055108;28;20301;-62
2023/04/07 07:24:55;;;;;;;9.52;7.88;;;;;;;;;;5054311;28;20224;-61
2023/04/07 07:27:22;;;;;;;9.20;7.85;;;;;;;;;;5055351;28;20190;-61
2023/04/07 07:29:49;;;;;;;10.25;7.80;;;;;;;;;;5054965;28;20205;-61
2023/04/07 07:32:17;;;;;;;9.63;8.25;;;;;;;;;;5054838;28;20668;-61
2023/04/07 07:34:44;;;;;;;7.95;6.68;;;;;;;;;;5054826;28;20566;-60
2023/04/07 07:37:11;;;;;;;8.27;7.45;;;;;;;;;;5054777;28;20620;-60
2023/04/07 07:39:38;;;;;;;8.38;7.50;;;;;;;;;;5054724;28;20237;-60
2023/04/07 07:42:05;;;;;;;9.95;7.40;;;;;;;;;;5054673;28;20593;-60
2023/04/07 07:44:32;;;;;;;13.27;7.60;;;;;;;;;;5054258;28;20230;-60
2023/04/07 07:46:59;;;;;;;9.33;7.57;;;;;;;;;;5054396;28;20282;-60
2023/04/07 07:49:27;;;;;;;8.55;7.57;;;;;;;;;;5054386;28;20812;-60
2023/04/07 07:51:54;;;;;;;8.90;6.85;;;;;;;;;;5054457;28;20190;-60
2023/04/07 07:54:21;;;;;;;7.90;7.10;;;;;;;;;;5054474;28;20277;-60
2023/04/07 07:56:48;;;;;;;10.95;7.38;;;;;;;;;;5054375;28;20197;-59
2023/04/07 07:59:15;;;;;;;7.43;6.50;;;;;;;;;;5054198;28;20191;-60
2023/04/07 08:01:42;;;;;;;9.70;6.63;;;;;;;;;;5054013;28;20225;-60
2023/04/07 08:04:09;;;;;;;8.07;6.80;;;;;;;;;;5054260;28;20472;-60
2023/04/07 08:06:37;;;;;;;14.57;7.30;;;;;;;;;;5053909;28;20641;-60
2023/04/07 08:09:05;;;;;;;9.83;6.67;;;;;;;;;;5054084;28;20518;-60
2023/04/07 08:11:32;;;;;;;8.33;6.90;;;;;;;;;;5054013;28;20457;-60
2023/04/07 08:13:59;;;;;;;7.53;6.67;;;;;;;;;;5053893;28;20843;-60
2023/04/07 08:16:26;;;;;;;10.63;7.90;;;;;;;;;;5053756;28;20423;-60
2023/04/07 08:18:53;;;;;;;8.33;6.70;;;;;;;;;;5053872;28;20973;-59
2023/04/07 08:21:20;;;;;;;9.10;6.73;;;;;;;;;;5053630;28;20611;-60
2023/04/07 08:23:48;;;;;;;6.60;6.00;;;;;;;;;;5053792;28;21019;-60
2023/04/07 08:26:15;;;;;;;9.23;7.10;;;;;;;;;;5053658;28;20459;-60
2023/04/07 08:28:42;;;;;;;9.43;7.10;;;;;;;;;;5053552;28;20816;-60
2023/04/07 08:31:09;;;;;;;8.17;7.37;;;;;;;;;;5053611;28;20457;-60
2023/04/07 08:33:36;;;;;;;10.30;7.43;;;;;;;;;;5053646;28;20453;-60
2023/04/07 08:36:03;;;;;;;8.70;6.70;;;;;;;;;;5052449;28;20968;-60
2023/04/07 08:38:30;;;;;;;7.67;6.67;;;;;;;;;;5053429;28;20449;-60
2023/04/07 08:41:01;;;;;;;9.10;6.80;;;;;;;;;;5053492;28;20515;-60
2023/04/07 08:43:29;;;;;;;6.97;6.30;;;;;;;;;;5053137;28;20473;-60
2023/04/07 08:45:57;;;;;;;6.90;6.30;;;;;;;;;;5053411;28;20989;-60
2023/04/07 08:48:27;;;;;;;6.97;6.37;;;;;;;;;;5053366;28;20482;-60
2023/04/07 08:50:54;;;;;;;7.13;6.43;;;;;;;;;;5053374;28;20453;-60
2023/04/07 08:53:24;;;;;;;7.27;6.53;;;;;;;;;;5053147;28;20445;-60
2023/04/07 08:55:51;;;;;;;9.00;7.07;;;;;;;;;;5053052;28;20489;-60
2023/04/07 08:58:19;;;;;;;9.00;6.13;;;;;;;;;;5052864;28;20448;-60
2023/04/07 09:00:48;;;;;;;6.17;5.57;;;;;;;;;;5053240;28;20779;-60
2023/04/07 09:03:15;;;;;;;6.80;5.97;;;;;;;;;;5053078;28;20449;-60
2023/04/07 09:05:44;;;;;;;7.20;5.60;;;;;;;;;;5053034;28;20480;-61
2023/04/07 09:08:11;;;;;;;6.77;6.17;;;;;;;;;;5052822;28;20887;-60
2023/04/07 09:10:38;;;;;;;7.10;4.80;;;;;;;;;;5052819;28;20500;-61
2023/04/07 09:13:05;;;;;;;6.60;4.83;;;;;;;;;;5053106;28;20543;-61
2023/04/07 09:15:33;;;;;;;7.03;6.20;;;;;;;;;;5052836;28;20524;-61
2023/04/07 09:18:00;;;;;;;7.73;6.00;;;;;;;;;;5052868;28;20540;-61
2023/04/07 09:20:27;;;;;;;5.43;4.60;;;;;;;;;;5052670;28;20445;-61
2023/04/07 09:22:55;;;;;;;5.53;4.93;;;;;;;;;;5052695;28;20445;-61
2023/04/07 09:25:24;;;;;;;5.17;4.67;;;;;;;;;;5052526;28;20534;-61
2023/04/07 09:27:58;;;;;;;5.40;4.90;;;;;;;;;;5052830;28;20505;-61
2023/04/07 09:30:25;;;;;;;5.60;5.10;;;;;;;;;;5052673;28;20943;-61
2023/04/07 09:32:54;;;;;;;6.00;5.00;;;;;;;;;;5052831;28;20544;-61
2023/04/07 09:35:22;;;;;;;6.20;4.80;;;;;;;;;;5052425;28;20449;-61
2023/04/07 09:38:01;;;;;;;7.67;5.03;;;;;;;;;;5052852;28;20491;-61
2023/04/07 09:40:28;;;;;;;8.50;4.63;;;;;;;;;;5052562;28;20825;-61
2023/04/07 09:42:57;;;;;;;6.00;5.17;;;;;;;;;;5052432;28;20484;-61
2023/04/07 09:45:25;;;;;;;5.03;4.53;;;;;;;;;;5052249;28;20487;-61
2023/04/07 09:47:52;;;;;;;8.43;5.40;;;;;;;;;;5051983;28;20460;-61
2023/04/07 09:50:31;;;;;;;5.70;5.10;;;;;;;;;;5052344;28;20958;-61
2023/04/07 09:52:58;;;;;;;6.83;5.07;;;;;;;;;;5052463;28;20453;-61
2023/04/07 09:55:25;;;;;;;4.40;4.07;;;;;;;;;;5052300;28;20535;-61
2023/04/07 09:57:54;;;;;;;7.17;4.43;;;;;;;;;;5052235;28;20494;-61
2023/04/07 10:00:21;;;;;;;5.10;4.60;;;;;;;;;;5052310;28;20452;-61
2023/04/07 10:02:49;;;;;;;4.97;4.47;;;;;;;;;;5052130;28;20539;-61
2023/04/07 10:05:16;;;;;;;4.60;4.20;;;;;;;;;;5052191;28;20489;-61
2023/04/07 10:07:45;;;;;;;10.07;4.57;;;;;;;;;;5052229;28;20449;-61
2023/04/07 10:10:12;;;;;;;6.10;4.77;;;;;;;;;;5052645;28;20492;-61
2023/04/07 10:12:40;;;;;;;6.07;5.13;;;;;;;;;;5052115;28;20535;-61
2023/04/07 10:15:07;;;;;;;4.70;4.07;;;;;;;;;;5052009;28;20526;-61
2023/04/07 10:17:36;;;;;;;4.73;4.07;;;;;;;;;;5052260;28;20540;-61
2023/04/07 10:20:05;;;;;;;4.30;3.90;;;;;;;;;;5052274;28;20449;-61
2023/04/07 10:22:32;;;;;;;6.27;4.50;;;;;;;;;;5052137;28;20539;-61
2023/04/07 10:25:03;;;;;;;4.70;4.20;;;;;;;;;;5052057;28;20511;-61
2023/04/07 10:27:32;;;;;;;5.57;4.00;;;;;;;;;;5052170;28;20547;-60
2023/04/07 10:29:59;;;;;;;6.17;4.10;;;;;;;;;;5051815;28;20427;-61
2023/04/07 10:32:26;;;;;;;6.30;4.13;;;;;;;;;;5051988;28;20539;-61
2023/04/07 10:34:57;;;;;;;5.43;4.40;;;;;;;;;;5052054;28;20449;-61
2023/04/07 10:37:25;;;;;;;4.80;3.93;;;;;;;;;;5051988;28;20460;-61
2023/04/07 10:39:52;;;;;;;8.67;4.30;;;;;;;;;;5051927;28;20453;-61
2023/04/07 10:42:34;;;;;;;7.53;4.30;;;;;;;;;;5051863;28;20540;-61
2023/04/07 10:45:03;;;;;;;4.83;4.43;;;;;;;;;;5043230;28;20903;-61
2023/04/07 10:47:31;;;;;;;3.93;3.43;;;;;;;;;;5051999;28;20812;-61
2023/04/07 10:50:17;;;;;;;4.67;3.90;;;;;;;;;;5051970;28;20448;-61
2023/04/07 10:52:45;;;;;;;6.53;4.87;;;;;;;;;;5051605;28;20540;-60
2023/04/07 10:55:31;;;;;;;5.30;3.40;;;;;;;;;;5051897;28;20816;-60
2023/04/07 10:58:14;;;;;;;4.07;3.63;;;;;;;;;;5051742;28;20452;-60
2023/04/07 11:00:43;;;;;;;4.37;3.50;;;;;;;;;;5054495;28;20859;-61
2023/04/07 11:03:12;;;;;;;9.17;3.50;;;;;;;;;;5055088;28;20437;-62
2023/04/07 11:05:39;;;;;;;4.70;3.10;;;;;;;;;;5055584;28;20524;-62
2023/04/07 11:08:06;;;;;;;4.67;4.27;;;;;;;;;;5055610;28;20467;-61
2023/04/07 11:10:33;;;;;;;4.00;3.60;;;;;;;;;;5055425;28;20484;-61
2023/04/07 11:13:09;;;;;;;4.40;3.90;;;;;;;;;;5055317;28;20449;-60
2023/04/07 11:15:37;;;;;;;4.77;3.50;;;;;;;;;;5055348;28;20834;-61
2023/04/07 11:18:13;;;;;;;4.47;3.67;;;;;;;;;;5055203;28;20535;-61
2023/04/07 11:20:48;;;;;;;4.17;3.77;;;;;;;;;;5055274;28;20453;-61
2023/04/07 11:23:15;;;;;;;4.03;3.33;;;;;;;;;;5055272;28;20881;-61
2023/04/07 11:25:43;;;;;;;4.57;3.67;;;;;;;;;;5054900;28;21041;-61
2023/04/07 11:28:12;;;;;;;4.50;3.90;;;;;;;;;;5054915;28;20448;-61
2023/04/07 11:30:39;;;;;;;7.63;4.20;;;;;;;;;;5055087;28;20449;-61
2023/04/07 11:33:06;;;;;;;5.80;4.67;;;;;;;;;;5054907;28;20547;-61
2023/04/07 11:35:35;;;;;;;7.90;5.70;;;;;;;;;;5054964;28;20483;-61
2023/04/07 11:38:04;;;;;;;5.50;5.00;;;;;;;;;;5054802;28;20895;-61
2023/04/07 11:40:35;;;;;;;7.00;5.73;;;;;;;;;;5054594;28;20535;-61
2023/04/07 11:43:02;;;;;;;7.40;5.83;;;;;;;;;;5054676;28;20460;-61
2023/04/07 11:45:29;;;;;;;13.40;12.10;;;;;;;;;;5054809;28;20516;-61
2023/04/07 11:47:56;;;;;;;15.27;13.68;;;;;;;;;;5054808;28;20955;-61
2023/04/07 11:50:41;;;;;;;16.93;15.10;;;;;;;;;;5054775;28;20289;-61
2023/04/07 11:53:08;;;;;;;20.50;18.10;;;;;;;;;;5054920;28;20449;-61
2023/04/07 11:55:35;;;;;;;22.50;18.33;;;;;;;;;;5054750;28;20602;-61
2023/04/07 11:58:11;;;;;;;22.83;18.83;;;;;;;;;;5054596;28;20506;-61
2023/04/07 12:00:53;;;;;;;24.10;19.77;;;;;;;;;;5053836;28;20455;-61
2023/04/07 12:03:20;;;;;;;25.17;20.80;;;;;;;;;;5054253;28;20540;-61
2023/04/07 12:05:48;;;;;;;22.88;20.38;;;;;;;;;;5054150;28;20476;-62
2023/04/07 12:08:15;;;;;;;24.73;19.77;;;;;;;;;;5054257;28;20226;-62
2023/04/07 12:10:43;;;;;;;25.95;20.23;;;;;;;;;;5053911;28;20650;-61
2023/04/07 12:13:10;;;;;;;24.30;19.57;;;;;;;;;;5054133;28;20277;-62
2023/04/07 12:15:37;;;;;;;23.20;18.87;;;;;;;;;;5053897;28;20484;-60
2023/04/07 12:18:04;;;;;;;24.50;19.80;;;;;;;;;;5053863;28;20448;-61
2023/04/07 12:20:31;;;;;;;30.07;20.43;;;;;;;;;;5053901;28;20459;-61
2023/04/07 12:23:00;;;;;;;28.40;20.87;;;;;;;;;;5053986;28;20479;-61
2023/04/07 12:25:27;;;;;;;28.02;21.13;;;;;;;;;;5053641;28;20968;-61
2023/04/07 12:27:54;;;;;;;30.60;22.10;;;;;;;;;;5053810;28;20190;-61
2023/04/07 12:30:21;;;;;;;31.30;21.07;;;;;;;;;;5053660;28;20453;-62
2023/04/07 12:32:48;;;;;;;30.23;23.50;;;;;;;;;;5053578;28;20539;-61
2023/04/07 12:35:15;;;;;;;32.00;22.73;;;;;;;;;;5053770;28;20623;-61
2023/04/07 12:37:42;;;;;;;27.42;22.40;;;;;;;;;;5053692;28;20247;-61
2023/04/07 12:40:12;;;;;;;35.00;23.38;;;;;;;;;;5053564;28;20187;-60
2023/04/07 12:42:39;;;;;;;27.50;18.90;;;;;;;;;;5053430;28;20197;-61
2023/04/07 12:45:06;;;;;;;24.95;18.75;;;;;;;;;;5053057;28;20325;-61
2023/04/07 12:47:33;;;;;;;24.58;18.70;;;;;;;;;;5053473;28;20194;-61
2023/04/07 12:50:00;;;;;;;24.10;18.80;;;;;;;;;;5053454;28;20197;-61
2023/04/07 12:52:27;;;;;;;26.13;18.30;;;;;;;;;;5053281;28;20201;-61
2023/04/07 12:54:55;;;;;;;24.27;18.55;;;;;;;;;;5053347;28;20190;-63
2023/04/07 12:57:24;;;;;;;23.33;18.30;;;;;;;;;;5053195;28;20650;-60
2023/04/07 12:59:52;;;;;;;21.30;17.27;;;;;;;;;;5053043;28;21011;-60
2023/04/07 13:02:19;;;;;;;22.58;18.25;;;;;;;;;;5053272;28;20190;-60
2023/04/07 13:04:46;;;;;;;22.95;18.42;;;;;;;;;;5053198;28;20201;-61
2023/04/07 13:07:13;;;;;;;26.15;18.13;;;;;;;;;;5053096;28;20218;-60
2023/04/07 13:09:42;;;;;;;26.65;18.80;;;;;;;;;;5053026;28;20193;-61
2023/04/07 13:12:10;;;;;;;23.90;17.97;;;;;;;;;;5052847;28;20202;-61
2023/04/07 13:14:38;;;;;;;22.40;16.60;;;;;;;;;;5053127;28;20460;-60
2023/04/07 13:17:06;;;;;;;27.45;16.23;;;;;;;;;;5053017;28;20202;-59
2023/04/07 13:19:33;;;;;;;30.03;19.47;;;;;;;;;;5052801;28;20669;-61
2023/04/07 13:22:00;;;;;;;28.35;17.25;;;;;;;;;;5052288;28;20448;-61
2023/04/07 13:24:27;;;;;;;29.38;18.20;;;;;;;;;;5052824;28;20221;-61
2023/04/07 13:26:54;;;;;;;32.97;20.15;;;;;;;;;;5052630;28;20214;-60
2023/04/07 13:29:21;;;;;;;35.27;19.07;;;;;;;;;;5052853;28;20271;-62
2023/04/07 13:31:50;;;;;;;27.00;16.85;;;;;;;;;;5052719;28;20455;-61
2023/04/07 13:34:17;;;;;;;28.53;17.37;;;;;;;;;;5052857;28;20194;-61
2023/04/07 13:36:44;;;;;;;26.52;16.23;;;;;;;;;;5052787;28;20475;-61
2023/04/07 13:39:12;;;;;;;23.97;15.53;;;;;;;;;;5052576;28;20247;-61
2023/04/07 13:41:39;;;;;;;24.98;15.40;;;;;;;;;;5052762;28;20491;-61
2023/04/07 13:44:06;;;;;;;24.30;14.53;;;;;;;;;;5052391;28;20272;-61
2023/04/07 13:46:33;;;;;;;19.45;12.50;;;;;;;;;;5052409;28;20835;-60
2023/04/07 13:49:01;;;;;;;21.48;15.27;;;;;;;;;;5052605;28;20190;-60
2023/04/07 13:51:28;;;;;;;23.30;14.30;;;;;;;;;;5052537;28;20187;-61
2023/04/07 13:53:55;;;;;;;19.98;11.85;;;;;;;;;;5052352;28;20186;-60
2023/04/07 13:56:22;;;;;;;18.48;13.30;;;;;;;;;;5052549;28;20617;-62
2023/04/07 13:58:50;;;;;;;18.10;13.05;;;;;;;;;;5052539;28;20187;-60
2023/04/07 14:01:17;;;;;;;21.47;12.50;;;;;;;;;;5052642;28;20198;-60
2023/04/07 14:03:45;;;;;;;17.77;12.73;;;;;;;;;;5052502;28;20856;-62
2023/04/07 14:06:13;;;;;;;18.38;12.60;;;;;;;;;;5052321;28;20473;-63
2023/04/07 14:08:40;;;;;;;18.58;12.75;;;;;;;;;;5052460;28;20229;-62
2023/04/07 14:11:07;;;;;;;18.83;12.50;;;;;;;;;;5052282;28;20687;-62
2023/04/07 14:13:35;;;;;;;16.33;11.37;;;;;;;;;;5052474;28;20967;-62
2023/04/07 14:16:02;;;;;;;17.77;11.70;;;;;;;;;;5052593;28;20449;-62
2023/04/07 14:18:29;;;;;;;14.73;10.47;;;;;;;;;;5052433;28;20416;-61
2023/04/07 14:20:56;;;;;;;16.80;11.00;;;;;;;;;;5052234;28;20441;-62
2023/04/07 14:23:24;;;;;;;12.47;9.73;;;;;;;;;;5052388;28;20273;-62
2023/04/07 14:25:51;;;;;;;12.18;10.10;;;;;;;;;;5052163;28;20959;-62
2023/04/07 14:28:18;;;;;;;14.53;10.17;;;;;;;;;;5052299;28;20282;-62
2023/04/07 14:30:46;;;;;;;12.93;9.60;;;;;;;;;;5052234;28;20539;-62
2023/04/07 14:33:14;;;;;;;12.97;10.17;;;;;;;;;;5052237;28;20213;-62
2023/04/07 14:35:41;;;;;;;11.43;8.97;;;;;;;;;;5055703;28;20827;-62